Time;durP1;ratioP1;P1;durP2;ratioP2;P2;SDS_P1;SDS_P2;PMS_P1;PMS_P2;Temp;Humidity;BMP_temperature;BMP_pressure;BME280_temperature;BME280_humidity;BME280_pressure;Samples;Min_cycle;Max_cycle;Signal;HPM_P1;HPM_P2
2021/01/25 00:00:59;;;;;;;10.40;4.07;;;;;;;;;;4943199;29;20039;-77
2021/01/25 00:03:25;;;;;;;10.00;4.00;;;;;;;;;;4930895;29;20514;-76
2021/01/25 00:05:51;;;;;;;7.15;3.92;;;;;;;;;;4932157;29;20097;-76
2021/01/25 00:08:17;;;;;;;9.95;4.40;;;;;;;;;;4946950;29;20027;-76
2021/01/25 00:10:43;;;;;;;8.85;4.10;;;;;;;;;;4947247;29;20028;-76
2021/01/25 00:13:10;;;;;;;8.30;4.47;;;;;;;;;;4947441;29;20040;-78
2021/01/25 00:15:36;;;;;;;11.02;4.03;;;;;;;;;;4947928;29;20028;-77
2021/01/25 00:18:02;;;;;;;9.55;3.65;;;;;;;;;;4947345;28;20027;-76
2021/01/25 00:20:28;;;;;;;9.77;4.78;;;;;;;;;;4933801;29;20035;-77
2021/01/25 00:22:55;;;;;;;9.57;4.25;;;;;;;;;;4951659;29;20127;-78
2021/01/25 00:25:22;;;;;;;9.68;4.40;;;;;;;;;;4950707;28;20024;-78
2021/01/25 00:27:48;;;;;;;10.77;3.88;;;;;;;;;;4962862;28;20040;-77
2021/01/25 00:30:16;;;;;;;12.10;4.38;;;;;;;;;;4950410;28;20118;-77
2021/01/25 00:32:42;;;;;;;10.63;4.55;;;;;;;;;;4936256;29;20028;-76
2021/01/25 00:35:11;;;;;;;12.02;5.47;;;;;;;;;;4935156;29;20502;-76
2021/01/25 00:37:39;;;;;;;11.10;4.75;;;;;;;;;;4951151;29;20131;-77
2021/01/25 00:40:05;;;;;;;12.00;4.45;;;;;;;;;;4965516;28;20039;-76
2021/01/25 00:42:32;;;;;;;9.40;4.68;;;;;;;;;;4950856;29;20153;-76
2021/01/25 00:45:01;;;;;;;8.82;4.60;;;;;;;;;;4934737;29;20035;-76
2021/01/25 00:47:27;;;;;;;9.77;4.53;;;;;;;;;;4950619;29;20024;-78
2021/01/25 00:49:53;;;;;;;10.43;4.45;;;;;;;;;;4949840;28;20117;-76
2021/01/25 00:52:19;;;;;;;11.90;4.65;;;;;;;;;;4934670;29;20544;-76
2021/01/25 00:54:56;;;;;;;11.02;5.47;;;;;;;;;;4934153;29;20446;-76
2021/01/25 00:57:22;;;;;;;9.40;5.22;;;;;;;;;;4950063;29;20663;-77
2021/01/25 00:59:48;;;;;;;12.43;5.07;;;;;;;;;;4962587;28;20046;-76
2021/01/25 01:02:14;;;;;;;11.23;4.88;;;;;;;;;;4949971;28;20036;-76
2021/01/25 01:04:40;;;;;;;10.18;5.25;;;;;;;;;;4950638;29;20020;-77
2021/01/25 01:07:07;;;;;;;15.18;5.15;;;;;;;;;;4950021;29;20028;-76
2021/01/25 01:09:50;;;;;;;12.00;5.20;;;;;;;;;;4934076;29;20028;-78
2021/01/25 01:12:16;;;;;;;11.63;5.50;;;;;;;;;;4950018;29;20404;-77
2021/01/25 01:14:42;;;;;;;12.45;5.85;;;;;;;;;;4950204;29;20054;-81
2021/01/25 01:17:08;;;;;;;9.37;4.53;;;;;;;;;;4933758;29;20110;-77
2021/01/25 01:19:34;;;;;;;13.13;5.20;;;;;;;;;;4925282;29;20284;-78
2021/01/25 01:22:00;;;;;;;11.63;4.70;;;;;;;;;;4949467;29;20323;-76
2021/01/25 01:24:26;;;;;;;10.50;5.00;;;;;;;;;;4950719;29;21154;-76
2021/01/25 01:26:52;;;;;;;11.80;4.57;;;;;;;;;;4949505;29;20279;-79
2021/01/25 01:29:18;;;;;;;10.30;4.80;;;;;;;;;;4949155;28;20295;-76
2021/01/25 01:31:45;;;;;;;8.93;4.17;;;;;;;;;;4933370;29;20324;-76
2021/01/25 01:34:11;;;;;;;9.63;4.77;;;;;;;;;;4935563;29;20263;-76
2021/01/25 01:36:37;;;;;;;9.37;4.50;;;;;;;;;;4933187;29;20275;-77
2021/01/25 01:39:04;;;;;;;10.90;5.23;;;;;;;;;;4934950;29;20295;-77
2021/01/25 01:41:36;;;;;;;9.03;4.97;;;;;;;;;;4933989;29;20272;-78
2021/01/25 01:44:06;;;;;;;7.53;4.50;;;;;;;;;;4950044;29;20272;-77
2021/01/25 01:46:32;;;;;;;8.13;4.03;;;;;;;;;;4957226;28;20370;-76
2021/01/25 01:48:59;;;;;;;9.63;4.60;;;;;;;;;;4958938;28;20286;-77
2021/01/25 01:51:25;;;;;;;9.67;4.97;;;;;;;;;;4935332;29;20298;-76
2021/01/25 01:53:51;;;;;;;11.77;4.87;;;;;;;;;;4933485;29;20362;-78
2021/01/25 01:56:17;;;;;;;10.63;4.70;;;;;;;;;;4949297;29;20278;-77
2021/01/25 01:58:45;;;;;;;9.37;4.70;;;;;;;;;;4934129;29;20295;-78
2021/01/25 02:01:12;;;;;;;11.43;5.40;;;;;;;;;;4948939;29;20679;-77
2021/01/25 02:03:38;;;;;;;16.20;5.60;;;;;;;;;;4934288;29;20282;-77
2021/01/25 02:06:05;;;;;;;10.27;5.57;;;;;;;;;;4934381;29;20294;-77
2021/01/25 02:08:36;;;;;;;10.33;5.00;;;;;;;;;;4949793;28;20291;-77
2021/01/25 02:11:02;;;;;;;9.63;4.33;;;;;;;;;;4933740;29;20378;-77
2021/01/25 02:13:29;;;;;;;9.53;4.67;;;;;;;;;;4934993;29;20326;-77
2021/01/25 02:15:55;;;;;;;8.67;4.60;;;;;;;;;;4949337;29;20271;-77
2021/01/25 02:18:21;;;;;;;10.43;4.10;;;;;;;;;;4945797;29;20332;-76
2021/01/25 02:20:47;;;;;;;10.50;4.30;;;;;;;;;;4949415;29;20279;-77
2021/01/25 02:23:33;;;;;;;11.37;4.10;;;;;;;;;;4949162;29;20275;-77
2021/01/25 02:26:17;;;;;;;8.53;3.97;;;;;;;;;;4934922;29;21075;-77
2021/01/25 02:28:44;;;;;;;10.37;4.30;;;;;;;;;;4932950;29;20286;-77
2021/01/25 02:31:27;;;;;;;10.30;4.53;;;;;;;;;;4934664;29;20291;-77
2021/01/25 02:33:58;;;;;;;9.13;4.17;;;;;;;;;;4949564;29;20287;-79
2021/01/25 02:36:24;;;;;;;9.90;4.90;;;;;;;;;;4949520;29;20670;-77
2021/01/25 02:38:51;;;;;;;8.73;4.37;;;;;;;;;;4952850;28;20781;-77
2021/01/25 02:41:24;;;;;;;10.37;5.17;;;;;;;;;;4948700;29;20853;-79
2021/01/25 02:43:50;;;;;;;9.93;4.03;;;;;;;;;;4948287;28;20812;-78
2021/01/25 02:46:16;;;;;;;9.20;4.87;;;;;;;;;;4945822;29;20399;-76
2021/01/25 02:48:42;;;;;;;11.20;4.30;;;;;;;;;;4929089;29;20831;-77
2021/01/25 02:51:08;;;;;;;11.20;5.67;;;;;;;;;;4931455;29;20659;-77
2021/01/25 02:53:35;;;;;;;9.17;3.93;;;;;;;;;;4946174;29;20327;-77
2021/01/25 02:56:01;;;;;;;7.73;3.17;;;;;;;;;;4928999;29;20296;-77
2021/01/25 02:58:28;;;;;;;7.88;3.30;;;;;;;;;;4946570;28;20291;-77
2021/01/25 03:00:56;;;;;;;6.80;3.60;;;;;;;;;;4945838;29;20126;-77
2021/01/25 03:03:23;;;;;;;5.83;2.90;;;;;;;;;;4934197;29;20290;-77
2021/01/25 03:05:50;;;;;;;6.40;2.93;;;;;;;;;;4948583;29;20260;-79
2021/01/25 03:08:16;;;;;;;7.70;3.40;;;;;;;;;;4948235;28;20808;-77
2021/01/25 03:10:42;;;;;;;7.50;3.17;;;;;;;;;;4932474;29;20768;-77
2021/01/25 03:13:08;;;;;;;6.80;3.10;;;;;;;;;;4932386;29;20772;-76
2021/01/25 03:15:35;;;;;;;6.67;3.17;;;;;;;;;;4948087;29;20260;-77
2021/01/25 03:18:02;;;;;;;10.30;2.90;;;;;;;;;;4931148;29;20295;-77
2021/01/25 03:20:28;;;;;;;6.00;2.90;;;;;;;;;;4931859;29;20268;-77
2021/01/25 03:22:54;;;;;;;6.03;3.30;;;;;;;;;;4947937;29;20314;-76
2021/01/25 03:25:20;;;;;;;7.43;2.80;;;;;;;;;;4945821;29;20277;-77
2021/01/25 03:27:46;;;;;;;5.33;2.63;;;;;;;;;;4931748;29;20260;-76
2021/01/25 03:30:13;;;;;;;7.43;3.20;;;;;;;;;;4947865;28;20276;-77
2021/01/25 03:32:39;;;;;;;7.47;2.97;;;;;;;;;;4937725;29;20284;-77
2021/01/25 03:35:09;;;;;;;4.97;2.63;;;;;;;;;;4931838;29;20274;-77
2021/01/25 03:37:36;;;;;;;6.40;2.83;;;;;;;;;;4947277;29;20328;-77
2021/01/25 03:40:02;;;;;;;8.20;3.47;;;;;;;;;;4944435;28;20295;-77
2021/01/25 03:42:28;;;;;;;5.30;2.67;;;;;;;;;;4928842;29;20267;-77
2021/01/25 03:44:54;;;;;;;7.70;2.83;;;;;;;;;;4947562;29;20310;-77
2021/01/25 03:47:20;;;;;;;7.30;3.20;;;;;;;;;;4922854;29;20315;-77
2021/01/25 03:49:46;;;;;;;6.70;3.17;;;;;;;;;;4931727;29;21075;-77
2021/01/25 03:52:12;;;;;;;9.33;3.77;;;;;;;;;;4931139;29;20674;-77
2021/01/25 03:54:38;;;;;;;6.73;3.00;;;;;;;;;;4947567;29;20355;-77
2021/01/25 03:57:04;;;;;;;6.50;3.50;;;;;;;;;;4935968;29;20331;-77
2021/01/25 03:59:30;;;;;;;6.77;2.87;;;;;;;;;;4935323;29;20327;-77
2021/01/25 04:01:57;;;;;;;6.97;3.00;;;;;;;;;;4929171;29;20283;-77
2021/01/25 04:04:24;;;;;;;7.23;3.07;;;;;;;;;;4934075;29;20268;-77
2021/01/25 04:06:50;;;;;;;6.63;2.73;;;;;;;;;;4948766;29;20282;-77
2021/01/25 04:09:16;;;;;;;6.13;2.90;;;;;;;;;;4949406;29;20275;-77
2021/01/25 04:11:45;;;;;;;11.30;5.77;;;;;;;;;;4932103;29;20279;-77
2021/01/25 04:14:11;;;;;;;38.07;27.07;;;;;;;;;;4933017;29;20302;-77
2021/01/25 04:16:38;;;;;;;29.93;10.70;;;;;;;;;;4947689;29;20362;-77
2021/01/25 04:19:05;;;;;;;25.07;10.37;;;;;;;;;;4942613;28;20322;-77
2021/01/25 04:21:31;;;;;;;33.67;14.90;;;;;;;;;;4924063;29;20279;-77
2021/01/25 04:23:58;;;;;;;29.83;11.47;;;;;;;;;;4948654;29;20278;-77
2021/01/25 04:26:24;;;;;;;9.87;4.60;;;;;;;;;;4932841;29;20351;-77
2021/01/25 04:28:50;;;;;;;7.67;3.70;;;;;;;;;;4931270;29;20282;-78
2021/01/25 04:31:16;;;;;;;9.10;4.67;;;;;;;;;;4933115;29;20271;-77
2021/01/25 04:33:42;;;;;;;11.53;4.47;;;;;;;;;;4932513;29;20271;-77
2021/01/25 04:36:08;;;;;;;6.27;3.57;;;;;;;;;;4948101;29;20268;-77
2021/01/25 04:38:35;;;;;;;9.97;3.80;;;;;;;;;;4929521;29;20302;-77
2021/01/25 04:41:01;;;;;;;8.00;3.70;;;;;;;;;;4947913;29;20278;-78
2021/01/25 04:43:28;;;;;;;11.27;5.30;;;;;;;;;;4932109;29;20267;-79
2021/01/25 04:45:55;;;;;;;11.67;5.43;;;;;;;;;;4933637;29;20753;-77
2021/01/25 04:48:22;;;;;;;9.93;4.70;;;;;;;;;;4928471;29;20290;-76
2021/01/25 04:50:50;;;;;;;12.60;6.53;;;;;;;;;;4947501;29;20291;-77
2021/01/25 04:53:16;;;;;;;11.57;6.27;;;;;;;;;;4947900;29;20268;-77
2021/01/25 04:55:43;;;;;;;13.13;6.37;;;;;;;;;;4947812;29;20355;-76
2021/01/25 04:58:09;;;;;;;10.20;6.67;;;;;;;;;;4928917;29;21136;-77
2021/01/25 05:00:35;;;;;;;9.80;6.63;;;;;;;;;;4932855;29;20267;-77
2021/01/25 05:03:02;;;;;;;10.23;6.43;;;;;;;;;;4931361;29;20271;-77
2021/01/25 05:05:28;;;;;;;12.57;7.80;;;;;;;;;;4931684;29;20264;-76
2021/01/25 05:07:54;;;;;;;13.90;7.93;;;;;;;;;;4943672;28;20399;-77
2021/01/25 05:10:20;;;;;;;10.60;7.07;;;;;;;;;;4914040;29;20292;-77
2021/01/25 05:12:48;;;;;;;12.67;7.60;;;;;;;;;;4924894;29;20263;-77
2021/01/25 05:15:33;;;;;;;13.43;8.60;;;;;;;;;;4931862;29;20819;-78
2021/01/25 05:18:04;;;;;;;13.37;8.17;;;;;;;;;;4941583;29;20272;-77
2021/01/25 05:20:31;;;;;;;16.43;9.37;;;;;;;;;;4947620;29;20318;-77
2021/01/25 05:22:57;;;;;;;15.70;9.50;;;;;;;;;;4940045;29;20933;-77
2021/01/25 05:25:24;;;;;;;13.10;8.77;;;;;;;;;;4946464;28;20674;-77
2021/01/25 05:27:50;;;;;;;14.40;8.13;;;;;;;;;;4945717;29;20274;-77
2021/01/25 05:30:17;;;;;;;14.23;8.77;;;;;;;;;;4931299;29;20298;-77
2021/01/25 05:32:50;;;;;;;13.37;8.50;;;;;;;;;;4931391;29;20331;-77
2021/01/25 05:35:17;;;;;;;11.68;7.95;;;;;;;;;;4931369;29;20417;-77
2021/01/25 05:37:44;;;;;;;11.60;7.20;;;;;;;;;;4946227;29;20040;-77
2021/01/25 05:40:20;;;;;;;13.60;7.73;;;;;;;;;;4929963;29;20294;-77
2021/01/25 05:42:46;;;;;;;12.03;6.53;;;;;;;;;;4932284;29;20270;-77
2021/01/25 05:45:13;;;;;;;10.33;6.50;;;;;;;;;;4947269;29;20286;-77
2021/01/25 05:47:48;;;;;;;11.57;6.77;;;;;;;;;;4928589;29;20319;-77
2021/01/25 05:50:30;;;;;;;13.10;6.50;;;;;;;;;;4940003;29;20270;-77
2021/01/25 05:52:57;;;;;;;11.20;6.67;;;;;;;;;;4931813;29;21176;-77
2021/01/25 05:55:24;;;;;;;11.83;6.43;;;;;;;;;;4947336;29;20271;-77
2021/01/25 05:57:50;;;;;;;9.87;6.53;;;;;;;;;;4945835;29;20278;-77
2021/01/25 06:00:16;;;;;;;10.33;6.87;;;;;;;;;;4942135;28;20283;-78
2021/01/25 06:02:46;;;;;;;11.47;6.93;;;;;;;;;;4947061;29;20260;-78
2021/01/25 06:05:15;;;;;;;12.73;7.43;;;;;;;;;;4933639;29;20307;-77
2021/01/25 06:07:42;;;;;;;13.43;7.50;;;;;;;;;;4924826;29;20276;-78
2021/01/25 06:10:10;;;;;;;15.23;8.50;;;;;;;;;;4947495;28;20283;-78
2021/01/25 06:12:39;;;;;;;13.60;9.53;;;;;;;;;;4948786;29;20674;-77
2021/01/25 06:15:05;;;;;;;13.70;8.57;;;;;;;;;;4933137;29;20773;-78
2021/01/25 06:17:35;;;;;;;15.60;8.47;;;;;;;;;;4933789;29;20307;-78
2021/01/25 06:20:05;;;;;;;15.43;8.30;;;;;;;;;;4932437;29;20292;-77
2021/01/25 06:22:32;;;;;;;14.57;9.27;;;;;;;;;;4933860;29;20307;-79
2021/01/25 06:25:00;;;;;;;18.00;9.10;;;;;;;;;;4933311;29;20385;-78
2021/01/25 06:27:29;;;;;;;13.47;8.63;;;;;;;;;;4947943;29;20294;-78
2021/01/25 06:29:59;;;;;;;16.30;10.40;;;;;;;;;;4948088;28;20773;-78
2021/01/25 06:32:31;;;;;;;21.23;11.47;;;;;;;;;;4935692;29;20275;-78
2021/01/25 06:34:57;;;;;;;20.33;13.47;;;;;;;;;;4945901;29;20283;-78
2021/01/25 06:37:34;;;;;;;18.50;10.77;;;;;;;;;;4947466;29;20283;-80
2021/01/25 06:40:12;;;;;;;17.00;9.43;;;;;;;;;;4951782;28;20291;-77
2021/01/25 06:42:40;;;;;;;18.43;9.63;;;;;;;;;;4940385;28;21024;-78
2021/01/25 06:45:08;;;;;;;23.07;11.70;;;;;;;;;;4945070;28;20295;-82
2021/01/25 06:47:37;;;;;;;19.00;11.00;;;;;;;;;;4935935;29;21130;-82
2021/01/25 06:50:05;;;;;;;15.00;9.43;;;;;;;;;;4932828;28;20362;-81
2021/01/25 06:52:32;;;;;;;19.93;11.83;;;;;;;;;;4949911;29;20260;-80
2021/01/25 06:55:03;;;;;;;17.07;9.80;;;;;;;;;;4932502;29;20280;-80
2021/01/25 06:57:32;;;;;;;17.40;9.00;;;;;;;;;;4949042;29;20724;-80
2021/01/25 06:59:58;;;;;;;20.40;11.17;;;;;;;;;;4948259;28;20296;-80
2021/01/25 07:02:25;;;;;;;23.93;10.10;;;;;;;;;;4933996;29;20343;-80
2021/01/25 07:04:57;;;;;;;20.20;11.23;;;;;;;;;;4950665;29;20282;-82
2021/01/25 07:07:24;;;;;;;17.73;10.53;;;;;;;;;;4933760;29;20314;-81
2021/01/25 07:09:53;;;;;;;22.40;10.07;;;;;;;;;;4934256;29;20283;-81
2021/01/25 07:12:20;;;;;;;16.97;10.97;;;;;;;;;;4958268;29;20287;-80
2021/01/25 07:14:47;;;;;;;19.30;11.30;;;;;;;;;;4935943;29;20282;-82
2021/01/25 07:17:17;;;;;;;15.50;10.00;;;;;;;;;;4930073;29;20287;-81
2021/01/25 07:19:43;;;;;;;15.67;10.77;;;;;;;;;;4943160;28;20379;-81
2021/01/25 07:22:10;;;;;;;15.97;10.67;;;;;;;;;;4948291;28;20303;-80
2021/01/25 07:24:37;;;;;;;31.83;16.73;;;;;;;;;;4952073;28;20834;-81
2021/01/25 07:27:04;;;;;;;18.27;11.50;;;;;;;;;;4946434;29;20335;-82
2021/01/25 07:29:30;;;;;;;21.47;12.80;;;;;;;;;;4945441;28;20292;-82
2021/01/25 07:31:57;;;;;;;21.13;13.30;;;;;;;;;;4936381;29;22129;-82
2021/01/25 07:34:30;;;;;;;15.53;10.07;;;;;;;;;;4933957;29;20376;-79
2021/01/25 07:37:01;;;;;;;16.75;9.98;;;;;;;;;;4948886;29;20690;-82
2021/01/25 07:39:29;;;;;;;16.93;9.63;;;;;;;;;;4949684;28;20063;-81
2021/01/25 07:41:57;;;;;;;12.80;8.97;;;;;;;;;;4939307;29;20473;-79
2021/01/25 07:44:23;;;;;;;18.97;10.33;;;;;;;;;;4953485;29;20273;-83
2021/01/25 07:46:50;;;;;;;16.33;9.50;;;;;;;;;;4948374;28;20294;-82
2021/01/25 07:49:25;;;;;;;15.63;9.47;;;;;;;;;;4929242;29;20288;-81
2021/01/25 07:51:55;;;;;;;15.33;9.13;;;;;;;;;;4949615;29;20797;-80
2021/01/25 07:54:21;;;;;;;14.60;8.60;;;;;;;;;;4950126;28;20287;-82
2021/01/25 07:56:47;;;;;;;16.73;8.97;;;;;;;;;;4932475;29;20724;-82
2021/01/25 07:59:17;;;;;;;15.83;8.77;;;;;;;;;;4933246;29;20400;-82
2021/01/25 08:01:45;;;;;;;14.63;9.47;;;;;;;;;;4936182;29;20342;-81
2021/01/25 08:04:13;;;;;;;14.43;9.00;;;;;;;;;;4950132;29;20335;-80
2021/01/25 08:06:40;;;;;;;12.93;8.27;;;;;;;;;;4935450;29;20279;-82
2021/01/25 08:09:07;;;;;;;12.67;8.23;;;;;;;;;;4949913;28;20903;-79
2021/01/25 08:11:35;;;;;;;14.13;8.23;;;;;;;;;;4948891;29;20291;-81
2021/01/25 08:14:13;;;;;;;12.70;8.60;;;;;;;;;;4948939;29;20279;-81
2021/01/25 08:16:42;;;;;;;16.67;9.73;;;;;;;;;;4964197;28;20286;-82
2021/01/25 08:19:14;;;;;;;14.70;8.43;;;;;;;;;;4948347;28;20310;-82
2021/01/25 08:21:53;;;;;;;12.30;7.03;;;;;;;;;;4932923;29;20431;-82
2021/01/25 08:24:20;;;;;;;16.77;8.73;;;;;;;;;;4957185;28;20272;-81
2021/01/25 08:26:46;;;;;;;14.07;8.90;;;;;;;;;;4931996;29;20260;-81
2021/01/25 08:29:24;;;;;;;15.67;8.60;;;;;;;;;;4930897;29;20291;-82
2021/01/25 08:31:52;;;;;;;13.00;7.80;;;;;;;;;;4931422;29;20286;-82
2021/01/25 08:34:20;;;;;;;13.37;8.17;;;;;;;;;;4933012;29;20283;-80
2021/01/25 08:36:56;;;;;;;11.53;7.67;;;;;;;;;;4952324;28;20268;-79
2021/01/25 08:39:29;;;;;;;11.47;7.07;;;;;;;;;;4930468;29;20347;-81
2021/01/25 08:41:59;;;;;;;11.98;7.50;;;;;;;;;;4934853;29;20346;-79
2021/01/25 08:44:25;;;;;;;14.90;8.93;;;;;;;;;;4935307;29;20031;-81
2021/01/25 08:46:52;;;;;;;14.00;8.47;;;;;;;;;;4948529;29;20323;-80
2021/01/25 08:49:22;;;;;;;17.27;9.87;;;;;;;;;;4955786;28;20333;-80
2021/01/25 08:51:56;;;;;;;13.13;8.40;;;;;;;;;;4941269;29;20290;-80
2021/01/25 08:54:22;;;;;;;;;;;;;;;;;;4941164;28;20798;-80
2021/01/25 08:56:48;;;;;;;10.80;6.83;;;;;;;;;;4953901;28;20332;-78
2021/01/25 08:59:15;;;;;;;11.83;7.50;;;;;;;;;;4932846;29;20726;-80
2021/01/25 09:01:43;;;;;;;17.20;9.20;;;;;;;;;;4931213;29;21005;-80
2021/01/25 09:04:10;;;;;;;13.77;8.17;;;;;;;;;;4952664;29;20280;-77
2021/01/25 09:06:49;;;;;;;14.53;7.87;;;;;;;;;;4934648;29;20287;-78
2021/01/25 09:09:16;;;;;;;10.90;6.53;;;;;;;;;;4960640;28;20279;-79
2021/01/25 09:11:42;;;;;;;10.20;6.20;;;;;;;;;;4934754;29;20804;-79
2021/01/25 09:14:08;;;;;;;10.70;6.17;;;;;;;;;;4951096;29;20282;-81
2021/01/25 09:16:34;;;;;;;10.23;6.37;;;;;;;;;;4950884;29;20435;-78
2021/01/25 09:19:00;;;;;;;8.67;6.00;;;;;;;;;;4947496;28;20785;-79
2021/01/25 09:21:26;;;;;;;8.63;5.43;;;;;;;;;;4945438;29;20315;-78
2021/01/25 09:23:54;;;;;;;10.33;6.00;;;;;;;;;;4947009;28;20107;-78
2021/01/25 09:26:22;;;;;;;8.90;5.70;;;;;;;;;;4946582;29;20043;-79
2021/01/25 09:28:48;;;;;;;9.33;5.20;;;;;;;;;;4950307;28;20032;-79
2021/01/25 09:31:16;;;;;;;8.10;5.97;;;;;;;;;;4950014;29;20028;-79
2021/01/25 09:33:42;;;;;;;8.67;5.57;;;;;;;;;;4950589;29;20032;-78
2021/01/25 09:36:08;;;;;;;10.27;6.17;;;;;;;;;;4950093;29;20528;-78
2021/01/25 09:38:34;;;;;;;9.90;6.17;;;;;;;;;;4948975;28;20118;-79
2021/01/25 09:41:01;;;;;;;14.60;7.87;;;;;;;;;;4931301;29;20035;-80
2021/01/25 09:43:29;;;;;;;12.17;6.90;;;;;;;;;;4948281;29;20747;-77
2021/01/25 09:45:55;;;;;;;8.93;6.87;;;;;;;;;;4945761;28;20393;-79
2021/01/25 09:48:21;;;;;;;9.47;6.43;;;;;;;;;;4927786;29;20404;-80
2021/01/25 09:50:48;;;;;;;11.33;7.50;;;;;;;;;;4948254;28;20341;-78
2021/01/25 09:53:15;;;;;;;14.20;7.93;;;;;;;;;;4945747;28;20525;-78
2021/01/25 09:55:42;;;;;;;17.63;10.97;;;;;;;;;;4950337;28;20362;-78
2021/01/25 09:58:08;;;;;;;12.47;8.23;;;;;;;;;;4949809;28;20275;-79
2021/01/25 10:00:34;;;;;;;16.63;10.23;;;;;;;;;;4937913;29;20319;-79
2021/01/25 10:03:00;;;;;;;11.07;8.30;;;;;;;;;;4935206;29;20279;-80
2021/01/25 10:05:26;;;;;;;17.00;10.30;;;;;;;;;;4928989;29;20279;-80
2021/01/25 10:07:52;;;;;;;14.73;8.27;;;;;;;;;;4949768;29;20339;-79
2021/01/25 10:10:21;;;;;;;13.23;8.50;;;;;;;;;;4951773;28;20382;-79
2021/01/25 10:12:47;;;;;;;11.63;8.63;;;;;;;;;;4936707;29;20283;-79
2021/01/25 10:15:16;;;;;;;14.50;8.87;;;;;;;;;;4945749;29;20777;-81
2021/01/25 10:17:42;;;;;;;13.60;10.00;;;;;;;;;;4917653;29;20831;-79
2021/01/25 10:20:09;;;;;;;31.20;19.17;;;;;;;;;;4949818;28;20302;-80
2021/01/25 10:22:35;;;;;;;22.60;15.73;;;;;;;;;;4936656;29;20291;-80
2021/01/25 10:25:02;;;;;;;14.90;9.10;;;;;;;;;;4951831;28;20291;-80
2021/01/25 10:27:28;;;;;;;15.07;8.00;;;;;;;;;;4947652;28;20279;-77
2021/01/25 10:29:54;;;;;;;12.33;8.70;;;;;;;;;;4932674;28;21002;-78
2021/01/25 10:32:24;;;;;;;13.87;8.17;;;;;;;;;;4934315;29;20291;-79
2021/01/25 10:34:51;;;;;;;13.30;8.33;;;;;;;;;;4934755;28;20371;-78
2021/01/25 10:37:18;;;;;;;10.40;7.30;;;;;;;;;;4948153;28;20418;-79
2021/01/25 10:39:47;;;;;;;10.43;6.70;;;;;;;;;;4948150;28;20326;-80
2021/01/25 10:42:14;;;;;;;11.27;7.53;;;;;;;;;;4937219;29;20374;-79
2021/01/25 10:44:40;;;;;;;10.20;6.43;;;;;;;;;;4935602;29;20287;-80
2021/01/25 10:47:06;;;;;;;10.57;6.70;;;;;;;;;;4949878;28;20296;-80
2021/01/25 10:49:33;;;;;;;10.43;7.47;;;;;;;;;;4950015;28;20298;-81
2021/01/25 10:52:02;;;;;;;10.73;7.00;;;;;;;;;;4956032;28;20362;-79
2021/01/25 10:54:29;;;;;;;10.30;7.17;;;;;;;;;;4957133;28;20796;-79
2021/01/25 10:56:57;;;;;;;10.60;6.87;;;;;;;;;;4937177;29;20346;-82
2021/01/25 10:59:24;;;;;;;12.40;7.27;;;;;;;;;;4941232;28;20331;-81
2021/01/25 11:01:50;;;;;;;11.53;6.40;;;;;;;;;;4945767;28;20861;-80
2021/01/25 11:04:18;;;;;;;9.17;6.33;;;;;;;;;;4930882;29;20342;-81
2021/01/25 11:06:47;;;;;;;12.10;7.57;;;;;;;;;;4946406;28;20083;-81
2021/01/25 11:09:13;;;;;;;9.53;6.47;;;;;;;;;;4949604;28;20066;-80
2021/01/25 11:11:39;;;;;;;10.10;6.97;;;;;;;;;;4950846;29;20095;-80
2021/01/25 11:14:06;;;;;;;10.07;7.10;;;;;;;;;;4952256;28;20660;-81
2021/01/25 11:16:33;;;;;;;8.77;5.57;;;;;;;;;;4951865;29;20067;-82
2021/01/25 11:18:59;;;;;;;7.57;5.17;;;;;;;;;;4933637;29;20103;-83
2021/01/25 11:21:29;;;;;;;9.00;6.63;;;;;;;;;;4933735;29;20059;-82
2021/01/25 11:23:55;;;;;;;9.17;6.73;;;;;;;;;;4933373;29;20062;-81
2021/01/25 11:26:25;;;;;;;11.43;7.70;;;;;;;;;;4948617;28;20046;-80
2021/01/25 11:28:51;;;;;;;10.13;7.50;;;;;;;;;;4930649;29;20036;-81
2021/01/25 11:31:17;;;;;;;12.63;8.00;;;;;;;;;;4934318;29;20042;-81
2021/01/25 11:33:43;;;;;;;11.83;8.33;;;;;;;;;;4931526;29;20035;-81
2021/01/25 11:36:09;;;;;;;12.23;8.80;;;;;;;;;;4950420;29;20040;-81
2021/01/25 11:38:36;;;;;;;13.97;9.13;;;;;;;;;;4946220;28;20296;-80
2021/01/25 11:41:02;;;;;;;19.60;12.57;;;;;;;;;;4949920;28;20275;-81
2021/01/25 11:43:29;;;;;;;13.63;9.20;;;;;;;;;;4951265;29;20036;-80
2021/01/25 11:45:55;;;;;;;11.07;7.63;;;;;;;;;;4963812;28;20280;-80
2021/01/25 11:48:21;;;;;;;10.57;6.50;;;;;;;;;;4949253;29;20024;-80
2021/01/25 11:50:49;;;;;;;10.90;6.10;;;;;;;;;;4968809;28;20027;-81
2021/01/25 11:53:15;;;;;;;10.57;7.13;;;;;;;;;;4966234;29;20028;-81
2021/01/25 11:55:42;;;;;;;10.90;6.63;;;;;;;;;;4951966;29;20015;-81
2021/01/25 11:58:09;;;;;;;11.37;7.67;;;;;;;;;;4966511;28;20039;-80
2021/01/25 12:00:35;;;;;;;11.37;7.07;;;;;;;;;;4965036;29;20377;-80
2021/01/25 12:03:01;;;;;;;9.90;6.70;;;;;;;;;;4965618;29;20255;-80
2021/01/25 12:05:27;;;;;;;9.37;6.97;;;;;;;;;;4963823;28;20295;-80
2021/01/25 12:07:57;;;;;;;8.50;6.00;;;;;;;;;;4979888;28;20259;-80
2021/01/25 12:10:23;;;;;;;10.43;6.50;;;;;;;;;;4949512;29;20268;-80
2021/01/25 12:12:49;;;;;;;12.67;7.73;;;;;;;;;;4955580;28;20031;-80
2021/01/25 12:15:16;;;;;;;11.53;7.50;;;;;;;;;;4955794;28;20279;-80
2021/01/25 12:17:44;;;;;;;9.93;6.07;;;;;;;;;;4935009;29;20275;-81
2021/01/25 12:20:11;;;;;;;9.37;6.80;;;;;;;;;;4952110;29;20047;-81
2021/01/25 12:22:37;;;;;;;15.17;10.63;;;;;;;;;;4967544;28;20271;-81
2021/01/25 12:25:04;;;;;;;11.83;8.17;;;;;;;;;;4951610;29;20028;-82
2021/01/25 12:27:30;;;;;;;9.13;6.30;;;;;;;;;;4952777;29;20035;-80
2021/01/25 12:29:56;;;;;;;9.37;5.47;;;;;;;;;;4950927;28;20114;-81
2021/01/25 12:32:23;;;;;;;7.77;5.63;;;;;;;;;;4954463;29;20426;-81
2021/01/25 12:34:51;;;;;;;10.70;5.53;;;;;;;;;;4952626;29;20027;-81
2021/01/25 12:37:17;;;;;;;10.47;7.13;;;;;;;;;;4937423;29;20135;-81
2021/01/25 12:39:43;;;;;;;8.43;5.70;;;;;;;;;;4935452;29;20119;-81
2021/01/25 12:42:09;;;;;;;8.40;5.70;;;;;;;;;;4937137;29;20148;-81
2021/01/25 12:44:36;;;;;;;9.37;5.77;;;;;;;;;;4938669;29;20117;-80
2021/01/25 12:47:03;;;;;;;7.83;5.20;;;;;;;;;;4957215;28;20039;-80
2021/01/25 12:49:29;;;;;;;7.57;5.00;;;;;;;;;;4935323;29;20384;-81
2021/01/25 12:51:55;;;;;;;7.53;4.40;;;;;;;;;;4938553;29;20040;-81
2021/01/25 12:54:21;;;;;;;6.77;4.37;;;;;;;;;;4939147;29;20280;-78
2021/01/25 12:56:48;;;;;;;10.20;5.10;;;;;;;;;;4937756;29;20816;-80
2021/01/25 12:59:16;;;;;;;7.90;5.20;;;;;;;;;;4948658;28;20287;-80
2021/01/25 13:01:42;;;;;;;8.37;4.97;;;;;;;;;;4958218;28;20271;-80
2021/01/25 13:04:08;;;;;;;9.30;5.97;;;;;;;;;;4940059;29;20301;-80
2021/01/25 13:06:39;;;;;;;9.03;5.90;;;;;;;;;;4954843;28;20324;-79
2021/01/25 13:09:06;;;;;;;6.77;4.50;;;;;;;;;;4934549;29;20297;-80
2021/01/25 13:11:34;;;;;;;10.23;6.00;;;;;;;;;;4939521;28;20291;-79
2021/01/25 13:14:00;;;;;;;7.70;4.80;;;;;;;;;;4941459;29;20365;-78
2021/01/25 13:16:30;;;;;;;7.33;4.53;;;;;;;;;;4948166;28;20275;-81
2021/01/25 13:18:56;;;;;;;7.50;4.33;;;;;;;;;;4949155;28;20295;-79
2021/01/25 13:21:26;;;;;;;6.37;4.17;;;;;;;;;;4935223;29;20370;-79
2021/01/25 13:23:53;;;;;;;6.47;4.17;;;;;;;;;;4933651;29;20272;-78
2021/01/25 13:26:22;;;;;;;6.43;3.83;;;;;;;;;;4951329;29;21013;-79
2021/01/25 13:28:48;;;;;;;6.23;3.83;;;;;;;;;;4933329;29;20386;-79
2021/01/25 13:31:16;;;;;;;4.80;3.20;;;;;;;;;;4933738;29;20268;-80
2021/01/25 13:33:42;;;;;;;6.17;3.67;;;;;;;;;;4948539;29;20307;-79
2021/01/25 13:36:09;;;;;;;5.70;3.40;;;;;;;;;;4948332;29;20283;-79
2021/01/25 13:38:35;;;;;;;5.73;3.20;;;;;;;;;;4923094;29;20490;-78
2021/01/25 13:41:01;;;;;;;6.50;2.93;;;;;;;;;;4947610;29;20280;-79
2021/01/25 13:43:27;;;;;;;5.93;3.50;;;;;;;;;;4946934;29;20291;-78
2021/01/25 13:45:54;;;;;;;5.50;2.97;;;;;;;;;;4947021;29;20280;-78
2021/01/25 13:48:21;;;;;;;5.60;3.30;;;;;;;;;;4946992;28;20298;-77
2021/01/25 13:50:48;;;;;;;6.73;3.23;;;;;;;;;;4945631;29;20370;-78
2021/01/25 13:53:14;;;;;;;7.07;4.07;;;;;;;;;;4945221;29;20276;-78
2021/01/25 13:55:43;;;;;;;6.63;4.00;;;;;;;;;;4947573;29;20268;-78
2021/01/25 13:58:11;;;;;;;6.03;3.53;;;;;;;;;;4930419;29;20280;-78
2021/01/25 14:00:37;;;;;;;7.37;3.83;;;;;;;;;;4948391;28;20319;-78
2021/01/25 14:03:04;;;;;;;7.07;4.13;;;;;;;;;;4933817;29;20280;-78
2021/01/25 14:05:31;;;;;;;5.43;3.53;;;;;;;;;;4946787;29;20307;-79
2021/01/25 14:07:57;;;;;;;7.30;4.57;;;;;;;;;;4946368;29;20287;-79
2021/01/25 14:10:25;;;;;;;21.77;14.97;;;;;;;;;;4931588;29;20287;-78
2021/01/25 14:12:54;;;;;;;20.60;11.23;;;;;;;;;;4947282;29;20279;-78
2021/01/25 14:15:21;;;;;;;7.27;4.70;;;;;;;;;;4946499;29;20367;-77
2021/01/25 14:17:47;;;;;;;7.70;4.50;;;;;;;;;;4926393;29;20276;-77
2021/01/25 14:20:15;;;;;;;6.67;3.47;;;;;;;;;;4945947;28;20303;-78
2021/01/25 14:22:42;;;;;;;6.07;3.63;;;;;;;;;;4930025;29;20318;-79
2021/01/25 14:25:11;;;;;;;7.50;4.07;;;;;;;;;;4932106;29;20275;-79
2021/01/25 14:27:39;;;;;;;6.50;3.90;;;;;;;;;;4945785;29;20276;-78
2021/01/25 14:30:07;;;;;;;6.33;4.10;;;;;;;;;;4934762;29;20287;-78
2021/01/25 14:32:35;;;;;;;9.03;5.50;;;;;;;;;;4946165;29;20404;-78
2021/01/25 14:35:05;;;;;;;7.87;4.60;;;;;;;;;;4946159;28;20287;-78